Blue Goose, West Virginia
Current Conditions -  °F | °C
As of 1:53 PM on Tuesday 27 Jan 2015 (Local Time) from KPKB Reporting Station
Light Snow Light Snow  
Wind Chill: 14°   Ceiling: 2200
Heat Index: 24°   Visibility: 3mi
Dew Point: 15°   Wind: 10mph
Humidity: 69%   Direction: 300°WNW
Pressure: 30.03"   Gusts: NA
Location:  38.9676°N, 81.429°W
Report Text: KPKB 271853Z 30009KT 3SM -SN BKN022 OVC031 M04/M09 A3003 RMK AO2 SLP181 P0000 T10441094
Loading
Personal Weather Stations






























Interactive Weather Map New forecast layout! Learn more

10-Day Weather Forecast

Advertisements
Track Severe Weather on mobile